Time;durP1;ratioP1;P1;durP2;ratioP2;P2;SDS_P1;SDS_P2;PMS_P1;PMS_P2;Temp;Humidity;BMP_temperature;BMP_pressure;BME280_temperature;BME280_humidity;BME280_pressure;Samples;Min_cycle;Max_cycle;Signal;HPM_P1;HPM_P2
2023/03/12 00:01:14;;;;;;;28.42;4.88;;;;;;;;;;4972295;28;20048;-47
2023/03/12 00:03:42;;;;;;;28.33;5.23;;;;;;;;;;4994807;28;20120;-46
2023/03/12 00:06:09;;;;;;;23.17;4.85;;;;;;;;;;4971893;28;20083;-47
2023/03/12 00:08:37;;;;;;;21.02;4.90;;;;;;;;;;5003861;28;20061;-45
2023/03/12 00:11:06;;;;;;;25.77;4.88;;;;;;;;;;4989098;28;20129;-45
2023/03/12 00:13:34;;;;;;;21.50;4.72;;;;;;;;;;4995907;28;20462;-44
2023/03/12 00:16:06;;;;;;;32.30;5.03;;;;;;;;;;4978662;28;20052;-45
2023/03/12 00:18:35;;;;;;;31.15;4.88;;;;;;;;;;4986888;28;20045;-45
2023/03/12 00:21:03;;;;;;;35.72;5.70;;;;;;;;;;4988948;28;20503;-47
2023/03/12 00:23:31;;;;;;;32.83;5.20;;;;;;;;;;4989826;28;20128;-45
2023/03/12 00:26:02;;;;;;;34.08;6.32;;;;;;;;;;4978449;28;20120;-46
2023/03/12 00:28:31;;;;;;;32.90;5.20;;;;;;;;;;4257083;28;10000775;-46
2023/03/12 00:30:58;;;;;;;35.47;5.68;;;;;;;;;;4973327;28;20048;-46
2023/03/12 00:33:28;;;;;;;37.33;5.00;;;;;;;;;;4961432;28;20053;-47
2023/03/12 00:35:59;;;;;;;42.58;5.90;;;;;;;;;;4973138;28;20768;-45
2023/03/12 00:38:27;;;;;;;31.70;5.38;;;;;;;;;;4983866;28;20091;-47
2023/03/12 00:40:55;;;;;;;32.63;5.28;;;;;;;;;;4973007;28;20045;-45
2023/03/12 00:43:22;;;;;;;40.65;5.45;;;;;;;;;;4995119;28;20041;-45
2023/03/12 00:45:50;;;;;;;41.87;5.20;;;;;;;;;;4991366;28;20700;-46
2023/03/12 00:48:18;;;;;;;55.20;6.18;;;;;;;;;;5004403;28;20124;-46
2023/03/12 00:50:45;;;;;;;36.88;4.97;;;;;;;;;;4991823;28;20045;-46
2023/03/12 00:53:14;;;;;;;41.80;5.55;;;;;;;;;;4986909;28;20424;-45
2023/03/12 00:55:42;;;;;;;44.30;5.85;;;;;;;;;;5002721;28;20041;-45
2023/03/12 00:58:09;;;;;;;63.47;5.87;;;;;;;;;;4978471;28;20044;-45
2023/03/12 01:00:37;;;;;;;50.25;5.85;;;;;;;;;;4998872;28;20045;-47
2023/03/12 01:03:04;;;;;;;51.63;5.53;;;;;;;;;;4966941;28;20120;-47
2023/03/12 01:05:36;;;;;;;44.10;5.93;;;;;;;;;;4992786;28;25596;-45
2023/03/12 01:08:04;;;;;;;52.63;6.03;;;;;;;;;;4963237;28;20037;-46
2023/03/12 01:10:33;;;;;;;32.87;4.47;;;;;;;;;;5000904;28;20052;-46
2023/03/12 01:13:00;;;;;;;49.05;5.05;;;;;;;;;;4999237;28;20560;-48
2023/03/12 01:15:29;;;;;;;40.33;5.13;;;;;;;;;;5004239;28;20407;-45
2023/03/12 01:17:56;;;;;;;43.20;5.78;;;;;;;;;;4989757;28;20045;-46
2023/03/12 01:20:29;;;;;;;59.15;6.45;;;;;;;;;;4998775;28;20171;-47
2023/03/12 01:22:58;;;;;;;48.00;6.07;;;;;;;;;;5000951;28;20525;-48
2023/03/12 01:25:25;;;;;;;50.03;5.88;;;;;;;;;;4986079;28;20041;-48
2023/03/12 01:27:54;;;;;;;51.05;6.28;;;;;;;;;;5005587;28;20079;-46
2023/03/12 01:30:22;;;;;;;48.85;5.30;;;;;;;;;;4983729;28;20045;-47
2023/03/12 01:32:51;;;;;;;52.17;7.13;;;;;;;;;;5003334;28;20056;-48
2023/03/12 01:35:19;;;;;;;49.70;6.80;;;;;;;;;;4991697;28;20045;-48
2023/03/12 01:37:47;;;;;;;49.47;5.25;;;;;;;;;;5008925;28;20045;-46
2023/03/12 01:40:15;;;;;;;60.85;6.35;;;;;;;;;;4968825;28;20037;-45
2023/03/12 01:42:42;;;;;;;44.58;5.53;;;;;;;;;;4998371;28;20076;-45
2023/03/12 01:45:25;;;;;;;48.13;6.55;;;;;;;;;;4992737;28;20057;-46
2023/03/12 01:47:55;;;;;;;41.87;5.90;;;;;;;;;;4981778;28;20464;-46
2023/03/12 01:50:23;;;;;;;48.78;6.90;;;;;;;;;;5001049;28;20029;-47
2023/03/12 01:52:50;;;;;;;66.57;7.85;;;;;;;;;;4978101;28;20120;-44
2023/03/12 01:55:18;;;;;;;56.15;6.97;;;;;;;;;;4997206;28;20045;-45
2023/03/12 01:57:49;;;;;;;62.40;6.30;;;;;;;;;;4983848;28;20034;-45
2023/03/12 02:00:25;;;;;;;45.63;6.33;;;;;;;;;;5001931;28;20069;-46
2023/03/12 02:02:55;;;;;;;54.90;7.35;;;;;;;;;;4971039;28;20050;-46
2023/03/12 02:05:25;;;;;;;52.75;6.97;;;;;;;;;;5005708;28;20029;-46
2023/03/12 02:07:53;;;;;;;51.67;6.85;;;;;;;;;;4997043;28;20137;-46
2023/03/12 02:10:21;;;;;;;42.47;5.63;;;;;;;;;;4997935;28;20071;-45
2023/03/12 02:12:49;;;;;;;52.13;6.30;;;;;;;;;;4992593;28;20280;-46
2023/03/12 02:15:17;;;;;;;60.17;7.07;;;;;;;;;;5004252;28;20045;-46
2023/03/12 02:17:45;;;;;;;56.47;6.85;;;;;;;;;;4990765;28;20037;-45
2023/03/12 02:20:15;;;;;;;62.92;5.95;;;;;;;;;;4964756;28;20068;-45
2023/03/12 02:22:49;;;;;;;54.60;7.22;;;;;;;;;;4989616;28;20468;-46
2023/03/12 02:25:29;;;;;;;54.33;7.40;;;;;;;;;;4993275;28;20063;-46
2023/03/12 02:27:58;;;;;;;62.58;6.85;;;;;;;;;;5009843;28;20033;-45
2023/03/12 02:30:27;;;;;;;58.88;6.55;;;;;;;;;;4983350;28;20037;-46
2023/03/12 02:32:54;;;;;;;60.00;7.15;;;;;;;;;;5007380;28;20099;-45
2023/03/12 02:35:22;;;;;;;62.58;8.38;;;;;;;;;;4979785;28;20041;-46
2023/03/12 02:37:51;;;;;;;66.23;8.33;;;;;;;;;;4998198;28;20120;-45
2023/03/12 02:40:22;;;;;;;52.92;7.15;;;;;;;;;;4991266;28;20041;-44
2023/03/12 02:42:51;;;;;;;56.42;7.20;;;;;;;;;;4986465;28;20075;-44
2023/03/12 02:45:19;;;;;;;60.00;7.00;;;;;;;;;;4985657;28;20305;-46
2023/03/12 02:47:48;;;;;;;66.72;7.18;;;;;;;;;;4979078;28;20061;-45
2023/03/12 02:50:16;;;;;;;59.37;7.67;;;;;;;;;;5159522;22;20649;-44
2023/03/12 02:52:45;;;;;;;49.03;7.65;;;;;;;;;;4948809;28;20069;-46
2023/03/12 02:55:12;;;;;;;46.08;7.30;;;;;;;;;;4959877;28;20038;-46
2023/03/12 02:57:41;;;;;;;70.05;8.38;;;;;;;;;;4939459;28;20627;-44
2023/03/12 03:00:13;;;;;;;53.53;6.95;;;;;;;;;;4960901;28;21158;-44
2023/03/12 03:02:41;;;;;;;60.47;8.50;;;;;;;;;;4968684;28;20125;-45
2023/03/12 03:05:09;;;;;;;52.17;6.88;;;;;;;;;;4931051;28;20038;-44
2023/03/12 03:07:37;;;;;;;56.58;7.32;;;;;;;;;;4950312;28;20081;-46
2023/03/12 03:10:05;;;;;;;62.45;7.38;;;;;;;;;;4971236;28;20121;-46
2023/03/12 03:12:33;;;;;;;57.17;6.55;;;;;;;;;;4969142;28;20391;-44
2023/03/12 03:15:01;;;;;;;49.43;6.40;;;;;;;;;;4968971;28;20133;-44
2023/03/12 03:17:30;;;;;;;61.25;8.32;;;;;;;;;;4975674;28;20097;-46
2023/03/12 03:19:58;;;;;;;60.50;7.10;;;;;;;;;;4971930;28;20117;-47
2023/03/12 03:22:25;;;;;;;64.85;7.32;;;;;;;;;;4975237;28;20137;-44
2023/03/12 03:24:53;;;;;;;53.30;6.40;;;;;;;;;;4964907;28;20265;-45
2023/03/12 03:27:21;;;;;;;58.27;7.27;;;;;;;;;;4963963;28;20117;-46
2023/03/12 03:29:49;;;;;;;45.20;6.68;;;;;;;;;;4969261;28;20149;-45
2023/03/12 03:32:15;;;;;;;57.28;6.85;;;;;;;;;;4968161;28;20046;-46
2023/03/12 03:34:44;;;;;;;46.25;6.75;;;;;;;;;;4973436;28;20518;-45
2023/03/12 03:37:12;;;;;;;55.47;5.93;;;;;;;;;;4960643;28;20038;-45
2023/03/12 03:39:43;;;;;;;44.57;5.93;;;;;;;;;;4972105;28;20037;-45
2023/03/12 03:42:10;;;;;;;60.38;7.55;;;;;;;;;;4978257;28;20065;-47
2023/03/12 03:44:38;;;;;;;47.13;7.13;;;;;;;;;;4960427;28;20037;-48
2023/03/12 03:47:11;;;;;;;62.25;6.72;;;;;;;;;;4978976;28;20069;-45
2023/03/12 03:49:39;;;;;;;47.08;6.15;;;;;;;;;;4971130;28;20764;-46
2023/03/12 03:52:09;;;;;;;45.70;6.10;;;;;;;;;;4965560;28;20125;-44
2023/03/12 03:54:36;;;;;;;42.08;6.85;;;;;;;;;;4970899;28;20121;-44
2023/03/12 03:57:04;;;;;;;63.30;6.95;;;;;;;;;;4960295;28;20038;-44
2023/03/12 03:59:31;;;;;;;37.55;5.88;;;;;;;;;;4985112;28;20052;-45
2023/03/12 04:02:01;;;;;;;47.42;6.55;;;;;;;;;;4989818;28;20042;-44
2023/03/12 04:04:30;;;;;;;39.80;5.87;;;;;;;;;;4963001;28;20627;-46
2023/03/12 04:06:57;;;;;;;51.78;7.22;;;;;;;;;;4969934;28;20034;-44
2023/03/12 04:09:26;;;;;;;52.53;5.88;;;;;;;;;;4964941;28;21832;-45
2023/03/12 04:11:54;;;;;;;55.80;5.35;;;;;;;;;;4985331;28;20049;-45
2023/03/12 04:14:21;;;;;;;30.30;4.43;;;;;;;;;;4967523;28;20135;-45
2023/03/12 04:16:49;;;;;;;53.83;4.80;;;;;;;;;;4977142;28;20050;-47
2023/03/12 04:19:16;;;;;;;51.55;6.32;;;;;;;;;;4958338;28;20479;-46
2023/03/12 04:21:45;;;;;;;38.65;4.25;;;;;;;;;;4978076;28;20052;-44
2023/03/12 04:24:15;;;;;;;36.00;4.50;;;;;;;;;;4961326;28;20053;-44
2023/03/12 04:26:45;;;;;;;53.42;5.80;;;;;;;;;;4980378;28;20084;-45
2023/03/12 04:29:14;;;;;;;45.93;5.37;;;;;;;;;;4984769;28;20410;-46
2023/03/12 04:31:41;;;;;;;42.78;5.30;;;;;;;;;;4958749;28;20045;-49
2023/03/12 04:34:09;;;;;;;37.90;4.93;;;;;;;;;;4991239;28;20511;-45
2023/03/12 04:36:40;;;;;;;39.00;4.97;;;;;;;;;;4952063;28;20544;-44
2023/03/12 04:39:08;;;;;;;47.08;4.82;;;;;;;;;;4982033;28;20467;-43
2023/03/12 04:41:36;;;;;;;38.63;4.87;;;;;;;;;;4930560;28;20100;-45
2023/03/12 04:44:06;;;;;;;46.78;4.65;;;;;;;;;;4986135;28;20048;-47
2023/03/12 04:46:35;;;;;;;45.22;5.32;;;;;;;;;;4968513;28;20042;-44
2023/03/12 04:49:04;;;;;;;43.17;4.60;;;;;;;;;;4962496;28;20030;-45
2023/03/12 04:51:31;;;;;;;34.97;4.53;;;;;;;;;;4971365;28;20097;-44
2023/03/12 04:53:59;;;;;;;46.20;5.17;;;;;;;;;;4965665;28;20034;-44
2023/03/12 04:56:27;;;;;;;34.75;4.32;;;;;;;;;;4960601;28;20104;-45
2023/03/12 04:58:54;;;;;;;53.40;5.13;;;;;;;;;;4972429;28;20073;-45
2023/03/12 05:01:25;;;;;;;32.92;3.78;;;;;;;;;;4947809;28;20474;-44
2023/03/12 05:03:52;;;;;;;45.08;4.10;;;;;;;;;;4985469;28;20437;-46
2023/03/12 05:06:21;;;;;;;35.40;4.53;;;;;;;;;;4966860;28;20049;-45
2023/03/12 05:08:49;;;;;;;34.10;4.15;;;;;;;;;;4965233;28;20046;-45
2023/03/12 05:11:16;;;;;;;39.72;3.63;;;;;;;;;;4979994;28;20144;-45
2023/03/12 05:13:46;;;;;;;45.33;4.47;;;;;;;;;;4943668;28;20136;-46
2023/03/12 05:16:14;;;;;;;38.55;4.07;;;;;;;;;;4975752;28;20815;-46
2023/03/12 05:18:44;;;;;;;38.07;4.67;;;;;;;;;;4948580;28;20046;-45
2023/03/12 05:21:12;;;;;;;26.33;3.30;;;;;;;;;;4972580;28;20140;-46
2023/03/12 05:23:41;;;;;;;37.20;4.55;;;;;;;;;;4970322;28;20069;-46
2023/03/12 05:26:15;;;;;;;46.67;4.68;;;;;;;;;;4967689;28;21163;-46
2023/03/12 05:28:43;;;;;;;49.40;3.95;;;;;;;;;;4969807;28;20069;-46
2023/03/12 05:31:11;;;;;;;38.80;4.77;;;;;;;;;;4962518;28;20035;-47
2023/03/12 05:33:39;;;;;;;42.45;7.35;;;;;;;;;;4973941;28;20041;-48
2023/03/12 05:36:10;;;;;;;34.58;4.07;;;;;;;;;;4960108;28;20037;-47
2023/03/12 05:38:38;;;;;;;37.00;3.92;;;;;;;;;;4968163;28;20480;-45
2023/03/12 05:41:05;;;;;;;36.53;4.47;;;;;;;;;;4964799;28;20105;-45
2023/03/12 05:43:39;;;;;;;42.37;3.67;;;;;;;;;;4965108;28;20129;-45
2023/03/12 05:46:07;;;;;;;27.40;3.78;;;;;;;;;;4978302;28;20041;-47
2023/03/12 05:48:34;;;;;;;28.10;3.05;;;;;;;;;;4972726;28;20038;-45
2023/03/12 05:51:02;;;;;;;38.65;3.90;;;;;;;;;;4975994;28;20105;-46
2023/03/12 05:53:34;;;;;;;39.45;3.15;;;;;;;;;;4967085;28;20050;-45
2023/03/12 05:56:02;;;;;;;33.40;4.03;;;;;;;;;;4969477;28;20530;-46
2023/03/12 05:58:30;;;;;;;40.05;3.72;;;;;;;;;;4969830;28;20034;-46
2023/03/12 06:01:00;;;;;;;40.63;3.45;;;;;;;;;;4976411;28;20039;-45
2023/03/12 06:03:27;;;;;;;29.65;3.25;;;;;;;;;;4962122;28;20046;-45
2023/03/12 06:05:55;;;;;;;35.35;3.97;;;;;;;;;;4961929;28;20038;-44
2023/03/12 06:08:23;;;;;;;26.83;2.73;;;;;;;;;;4958905;28;20121;-46
2023/03/12 06:10:53;;;;;;;31.27;3.95;;;;;;;;;;4974148;28;20046;-44
2023/03/12 06:13:22;;;;;;;30.15;3.72;;;;;;;;;;4966709;28;20050;-51
2023/03/12 06:15:50;;;;;;;25.73;2.03;;;;;;;;;;4959597;28;20645;-46
2023/03/12 06:18:18;;;;;;;32.90;3.65;;;;;;;;;;4966713;28;20044;-45
2023/03/12 06:20:45;;;;;;;30.30;3.07;;;;;;;;;;4967818;28;20134;-46
2023/03/12 06:23:16;;;;;;;26.63;3.65;;;;;;;;;;4958464;28;20502;-45
2023/03/12 06:25:48;;;;;;;29.38;3.13;;;;;;;;;;4963030;28;20051;-46
2023/03/12 06:28:17;;;;;;;30.50;3.42;;;;;;;;;;4973034;28;20111;-46
2023/03/12 06:30:45;;;;;;;32.70;3.28;;;;;;;;;;4957482;28;20041;-45
2023/03/12 06:33:13;;;;;;;27.73;3.07;;;;;;;;;;4971622;28;20042;-48
2023/03/12 06:35:41;;;;;;;28.20;3.20;;;;;;;;;;4964083;28;20033;-45
2023/03/12 06:38:09;;;;;;;25.85;2.40;;;;;;;;;;4969378;28;20050;-45
2023/03/12 06:40:39;;;;;;;36.40;3.63;;;;;;;;;;4957183;28;20677;-44
2023/03/12 06:43:11;;;;;;;28.95;3.33;;;;;;;;;;4952191;28;20962;-48
2023/03/12 06:45:40;;;;;;;32.40;4.07;;;;;;;;;;4966465;28;20133;-47
2023/03/12 06:48:08;;;;;;;33.75;3.30;;;;;;;;;;4978003;28;20061;-46
2023/03/12 06:50:36;;;;;;;40.05;3.88;;;;;;;;;;4982021;28;20693;-44
2023/03/12 06:53:04;;;;;;;32.17;4.07;;;;;;;;;;4972353;28;20046;-47
2023/03/12 06:55:32;;;;;;;41.88;3.53;;;;;;;;;;4973783;28;20030;-45
2023/03/12 06:58:01;;;;;;;38.83;3.13;;;;;;;;;;4964409;28;20125;-48
2023/03/12 07:00:29;;;;;;;29.63;3.45;;;;;;;;;;4971776;28;20152;-47
2023/03/12 07:02:58;;;;;;;27.75;3.03;;;;;;;;;;4955081;28;20546;-45
2023/03/12 07:05:26;;;;;;;24.75;3.00;;;;;;;;;;4975492;28;20046;-45
2023/03/12 07:07:56;;;;;;;33.28;3.65;;;;;;;;;;4962892;28;20056;-46
2023/03/12 07:10:24;;;;;;;30.57;3.37;;;;;;;;;;4965770;28;20042;-45
2023/03/12 07:12:51;;;;;;;28.42;3.08;;;;;;;;;;4953913;28;20049;-45
2023/03/12 07:15:22;;;;;;;21.48;3.13;;;;;;;;;;4979242;28;20042;-47
2023/03/12 07:17:50;;;;;;;27.45;3.03;;;;;;;;;;4966860;28;20137;-45
2023/03/12 07:20:20;;;;;;;26.67;3.35;;;;;;;;;;4973051;28;20088;-47
2023/03/12 07:22:49;;;;;;;22.33;2.47;;;;;;;;;;4969231;28;20046;-44
2023/03/12 07:25:16;;;;;;;38.47;3.13;;;;;;;;;;4958298;28;20057;-45
2023/03/12 07:27:45;;;;;;;35.08;3.80;;;;;;;;;;4980995;28;20064;-44
2023/03/12 07:30:13;;;;;;;25.55;2.80;;;;;;;;;;4958364;28;20045;-45
2023/03/12 07:32:41;;;;;;;25.58;3.38;;;;;;;;;;4981039;28;20069;-44
2023/03/12 07:35:09;;;;;;;30.63;3.43;;;;;;;;;;4959652;28;20070;-46
2023/03/12 07:37:38;;;;;;;36.28;3.33;;;;;;;;;;4983277;28;20050;-45
2023/03/12 07:40:07;;;;;;;30.80;3.17;;;;;;;;;;4968336;28;20625;-47
2023/03/12 07:42:35;;;;;;;27.92;3.13;;;;;;;;;;4968888;28;20053;-47
2023/03/12 07:45:03;;;;;;;23.17;2.85;;;;;;;;;;4948190;28;20054;-46
2023/03/12 07:47:30;;;;;;;19.17;2.77;;;;;;;;;;4986149;28;20034;-46
2023/03/12 07:50:02;;;;;;;21.73;2.38;;;;;;;;;;4974827;28;20045;-45
2023/03/12 07:52:30;;;;;;;26.58;3.05;;;;;;;;;;4956492;28;20049;-46
2023/03/12 07:54:59;;;;;;;20.70;2.40;;;;;;;;;;4931657;28;20102;-46
2023/03/12 07:57:27;;;;;;;18.83;2.35;;;;;;;;;;4945912;28;20384;-48
2023/03/12 07:59:55;;;;;;;36.20;3.83;;;;;;;;;;4934410;28;20039;-45
2023/03/12 08:02:22;;;;;;;28.40;2.63;;;;;;;;;;4950661;28;20039;-45
2023/03/12 08:04:50;;;;;;;21.10;2.70;;;;;;;;;;4937180;28;20121;-45
2023/03/12 08:07:17;;;;;;;27.52;2.92;;;;;;;;;;4956433;28;20098;-45
2023/03/12 08:09:48;;;;;;;21.50;2.50;;;;;;;;;;4954451;28;20505;-44
2023/03/12 08:12:17;;;;;;;24.77;2.80;;;;;;;;;;4945615;28;20046;-47
2023/03/12 08:14:45;;;;;;;18.95;2.20;;;;;;;;;;4949579;28;20110;-46
2023/03/12 08:17:13;;;;;;;27.65;2.60;;;;;;;;;;4947250;28;20054;-45
2023/03/12 08:19:41;;;;;;;24.20;3.63;;;;;;;;;;4939179;28;20038;-45
2023/03/12 08:22:08;;;;;;;27.45;2.47;;;;;;;;;;4925798;28;20035;-46
2023/03/12 08:24:38;;;;;;;28.40;2.77;;;;;;;;;;4957197;28;20087;-44
2023/03/12 08:27:05;;;;;;;23.83;2.47;;;;;;;;;;4945259;28;20062;-45
2023/03/12 08:29:34;;;;;;;29.48;2.92;;;;;;;;;;4947945;28;20043;-45
2023/03/12 08:32:02;;;;;;;29.35;3.33;;;;;;;;;;4961672;28;20520;-50
2023/03/12 08:34:32;;;;;;;27.23;2.85;;;;;;;;;;4959600;28;20035;-45
2023/03/12 08:37:00;;;;;;;29.47;2.93;;;;;;;;;;4940750;28;20053;-44
2023/03/12 08:39:27;;;;;;;27.95;2.50;;;;;;;;;;4959633;28;20408;-45
2023/03/12 08:41:59;;;;;;;40.80;3.35;;;;;;;;;;4951686;28;20054;-45
2023/03/12 08:44:27;;;;;;;31.13;3.08;;;;;;;;;;4942579;28;20408;-46
2023/03/12 08:46:57;;;;;;;24.42;2.53;;;;;;;;;;4972365;28;20049;-45
2023/03/12 08:49:25;;;;;;;23.07;2.27;;;;;;;;;;4959381;28;20743;-46
2023/03/12 08:51:53;;;;;;;30.77;3.30;;;;;;;;;;4930182;28;20595;-46
2023/03/12 08:54:20;;;;;;;31.00;4.10;;;;;;;;;;4948641;28;20050;-47
2023/03/12 08:56:50;;;;;;;22.38;2.40;;;;;;;;;;4953853;28;20073;-45
2023/03/12 08:59:21;;;;;;;24.38;2.33;;;;;;;;;;4929577;28;20081;-45
2023/03/12 09:01:48;;;;;;;27.83;2.50;;;;;;;;;;4956663;28;20047;-45
2023/03/12 09:04:18;;;;;;;18.13;1.75;;;;;;;;;;4959102;28;20065;-46
2023/03/12 09:06:46;;;;;;;22.35;3.22;;;;;;;;;;4946648;28;20053;-46
2023/03/12 09:09:14;;;;;;;25.60;2.88;;;;;;;;;;4948793;28;20090;-45
2023/03/12 09:11:42;;;;;;;23.88;2.72;;;;;;;;;;4894799;28;20042;-45
2023/03/12 09:14:09;;;;;;;27.07;2.93;;;;;;;;;;4952722;28;20078;-46
2023/03/12 09:16:57;;;;;;;27.75;3.10;;;;;;;;;;4958714;28;20436;-44
2023/03/12 09:19:27;;;;;;;19.88;2.65;;;;;;;;;;4957492;28;20054;-44
2023/03/12 09:21:58;;;;;;;20.02;2.58;;;;;;;;;;4946085;28;20042;-46
2023/03/12 09:24:26;;;;;;;24.75;2.60;;;;;;;;;;4947591;28;20121;-44
2023/03/12 09:26:53;;;;;;;18.13;2.60;;;;;;;;;;4937313;28;20101;-44
2023/03/12 09:29:22;;;;;;;26.08;2.40;;;;;;;;;;4951651;28;20038;-44
2023/03/12 09:31:49;;;;;;;16.58;2.30;;;;;;;;;;4949599;28;20066;-49
2023/03/12 09:34:17;;;;;;;18.50;2.42;;;;;;;;;;4944142;28;20048;-46
2023/03/12 09:36:46;;;;;;;22.63;2.95;;;;;;;;;;4934833;28;20707;-45
2023/03/12 09:39:14;;;;;;;23.57;2.30;;;;;;;;;;4953600;28;20129;-45
2023/03/12 09:41:44;;;;;;;28.13;3.05;;;;;;;;;;4949664;28;20403;-47
2023/03/12 09:44:15;;;;;;;18.85;2.47;;;;;;;;;;4963777;28;20050;-44
2023/03/12 09:46:44;;;;;;;17.45;1.95;;;;;;;;;;4941376;28;20075;-45
2023/03/12 09:49:16;;;;;;;21.13;2.42;;;;;;;;;;4946313;28;20050;-45
2023/03/12 09:51:45;;;;;;;21.50;1.80;;;;;;;;;;4947514;28;20105;-45
2023/03/12 09:54:21;;;;;;;27.35;2.10;;;;;;;;;;4926858;28;20470;-47
2023/03/12 09:56:56;;;;;;;19.13;2.15;;;;;;;;;;4956303;28;20133;-46
2023/03/12 09:59:23;;;;;;;23.55;2.88;;;;;;;;;;4958253;28;20034;-44
2023/03/12 10:01:52;;;;;;;26.45;2.33;;;;;;;;;;4942522;28;20043;-45
2023/03/12 10:04:24;;;;;;;22.60;2.40;;;;;;;;;;4947727;28;20607;-46
2023/03/12 10:07:00;;;;;;;23.50;2.10;;;;;;;;;;4926564;28;20050;-46
2023/03/12 10:09:44;;;;;;;11.82;1.70;;;;;;;;;;4931369;28;20053;-45
2023/03/12 10:12:19;;;;;;;20.15;2.03;;;;;;;;;;4946584;28;20065;-44
2023/03/12 10:14:55;;;;;;;26.25;3.55;;;;;;;;;;4940069;28;20062;-45
2023/03/12 10:17:35;;;;;;;26.70;4.37;;;;;;;;;;4950612;28;21220;-45
2023/03/12 10:20:17;;;;;;;19.73;2.35;;;;;;;;;;4948708;28;20049;-45
2023/03/12 10:22:50;;;;;;;24.02;2.65;;;;;;;;;;4925835;28;20049;-45
2023/03/12 10:25:22;;;;;;;20.45;3.83;;;;;;;;;;4963260;28;20046;-45
2023/03/12 10:27:50;;;;;;;15.57;2.33;;;;;;;;;;4940615;28;20274;-47
2023/03/12 10:30:19;;;;;;;22.23;2.97;;;;;;;;;;4956513;28;20038;-45
2023/03/12 10:32:49;;;;;;;22.83;2.97;;;;;;;;;;4929614;28;20128;-45
2023/03/12 10:35:18;;;;;;;19.08;2.75;;;;;;;;;;4938823;28;20575;-46
2023/03/12 10:37:57;;;;;;;23.80;3.60;;;;;;;;;;4946019;28;20077;-44
2023/03/12 10:40:27;;;;;;;22.67;2.55;;;;;;;;;;4946807;28;20134;-46
2023/03/12 10:42:56;;;;;;;21.03;2.30;;;;;;;;;;4945340;28;20042;-46
2023/03/12 10:45:31;;;;;;;19.77;2.58;;;;;;;;;;4950548;28;20069;-46
2023/03/12 10:48:00;;;;;;;18.67;2.22;;;;;;;;;;4947538;28;20495;-46
2023/03/12 10:50:28;;;;;;;23.48;2.22;;;;;;;;;;4969937;28;20137;-46
2023/03/12 10:53:11;;;;;;;14.38;2.72;;;;;;;;;;4973761;28;20077;-46
2023/03/12 10:55:40;;;;;;;16.60;2.53;;;;;;;;;;4958400;28;20052;-47
2023/03/12 10:58:21;;;;;;;19.20;2.00;;;;;;;;;;4968827;28;20038;-44
2023/03/12 11:00:55;;;;;;;19.63;2.20;;;;;;;;;;4959100;28;20080;-46
2023/03/12 11:03:23;;;;;;;14.50;1.52;;;;;;;;;;4967528;28;20042;-45
2023/03/12 11:05:52;;;;;;;20.88;2.67;;;;;;;;;;4969121;28;20743;-48
2023/03/12 11:08:22;;;;;;;20.23;1.60;;;;;;;;;;4972235;28;20044;-47
2023/03/12 11:10:51;;;;;;;15.10;1.30;;;;;;;;;;4951987;28;20594;-45
2023/03/12 11:13:27;;;;;;;12.90;2.55;;;;;;;;;;4977678;28;20046;-46
2023/03/12 11:15:55;;;;;;;17.10;2.22;;;;;;;;;;4964170;28;20097;-47
2023/03/12 11:18:28;;;;;;;14.45;1.50;;;;;;;;;;4988665;28;20042;-47
2023/03/12 11:20:56;;;;;;;15.57;1.70;;;;;;;;;;4969397;28;20065;-49
2023/03/12 11:23:28;;;;;;;12.43;1.40;;;;;;;;;;4979016;28;20495;-46
2023/03/12 11:25:59;;;;;;;14.98;1.38;;;;;;;;;;4973076;28;20042;-48
2023/03/12 11:28:35;;;;;;;13.10;2.05;;;;;;;;;;4963172;28;20427;-45
2023/03/12 11:31:05;;;;;;;16.42;2.33;;;;;;;;;;4974520;28;20034;-46
2023/03/12 11:33:33;;;;;;;17.53;1.67;;;;;;;;;;4964056;28;20109;-46
2023/03/12 11:36:16;;;;;;;19.33;2.28;;;;;;;;;;4979415;28;20070;-45
2023/03/12 11:38:49;;;;;;;13.27;1.80;;;;;;;;;;4963951;28;20050;-47
2023/03/12 11:41:29;;;;;;;16.92;2.30;;;;;;;;;;4257287;28;10000913;-48
2023/03/12 11:44:03;;;;;;;11.93;2.53;;;;;;;;;;4976799;28;20052;-46
2023/03/12 11:46:37;;;;;;;19.43;2.60;;;;;;;;;;4949304;28;20046;-46
2023/03/12 11:49:11;;;;;;;19.42;2.42;;;;;;;;;;4976860;28;20050;-45
2023/03/12 11:51:44;;;;;;;19.67;2.17;;;;;;;;;;4980174;28;20144;-45
2023/03/12 11:54:20;;;;;;;19.88;2.58;;;;;;;;;;4967085;28;20049;-44
2023/03/12 11:56:54;;;;;;;18.98;2.22;;;;;;;;;;4974347;28;20060;-46
2023/03/12 11:59:27;;;;;;;12.70;2.00;;;;;;;;;;4972628;28;20121;-47
2023/03/12 12:01:58;;;;;;;15.25;2.45;;;;;;;;;;4621216;28;9999945;-47
2023/03/12 12:04:40;;;;;;;12.13;1.63;;;;;;;;;;4971521;28;20052;-46
2023/03/12 12:07:11;;;;;;;25.50;2.42;;;;;;;;;;4957204;28;20542;-46
2023/03/12 12:09:43;;;;;;;15.23;2.28;;;;;;;;;;4971397;28;20642;-48
2023/03/12 12:12:17;;;;;;;12.38;1.58;;;;;;;;;;4962614;28;20042;-45
2023/03/12 12:14:54;;;;;;;17.55;2.25;;;;;;;;;;4963249;28;20056;-46
2023/03/12 12:17:29;;;;;;;10.93;1.53;;;;;;;;;;4965612;28;20326;-44
2023/03/12 12:20:07;;;;;;;13.85;2.35;;;;;;;;;;4948967;28;20041;-45
2023/03/12 12:22:39;;;;;;;13.18;1.58;;;;;;;;;;4964126;28;20070;-46
2023/03/12 12:25:21;;;;;;;14.15;1.83;;;;;;;;;;4944170;28;20048;-46
2023/03/12 12:27:56;;;;;;;12.50;1.77;;;;;;;;;;4965335;28;20058;-47
2023/03/12 12:30:27;;;;;;;14.80;2.27;;;;;;;;;;4952127;28;20046;-46
2023/03/12 12:33:03;;;;;;;11.48;1.77;;;;;;;;;;4960819;28;20045;-48
2023/03/12 12:35:34;;;;;;;14.80;1.73;;;;;;;;;;4954645;28;20137;-45
2023/03/12 12:38:04;;;;;;;14.80;2.33;;;;;;;;;;4943318;28;20050;-46
2023/03/12 12:40:36;;;;;;;13.75;1.83;;;;;;;;;;4962779;28;20061;-46
2023/03/12 12:43:15;;;;;;;18.77;2.23;;;;;;;;;;4953342;28;20050;-46
2023/03/12 12:45:44;;;;;;;16.00;1.30;;;;;;;;;;4965544;28;20080;-45
2023/03/12 12:48:16;;;;;;;22.50;2.67;;;;;;;;;;4954175;28;20779;-45
2023/03/12 12:50:46;;;;;;;12.63;2.38;;;;;;;;;;4956504;28;20555;-46
2023/03/12 12:53:15;;;;;;;18.55;2.05;;;;;;;;;;4970838;28;20125;-45
2023/03/12 12:55:46;;;;;;;20.57;2.57;;;;;;;;;;4949300;28;20527;-45
2023/03/12 12:58:19;;;;;;;16.80;2.28;;;;;;;;;;4964413;28;20370;-46
2023/03/12 13:00:50;;;;;;;15.32;2.35;;;;;;;;;;4995937;28;20141;-45
2023/03/12 13:03:18;;;;;;;13.25;1.60;;;;;;;;;;4956584;28;20040;-46
2023/03/12 13:05:53;;;;;;;10.02;1.30;;;;;;;;;;4961769;28;20108;-47
2023/03/12 13:08:34;;;;;;;14.03;1.80;;;;;;;;;;4968513;28;20049;-45
2023/03/12 13:11:06;;;;;;;11.20;1.60;;;;;;;;;;4951524;28;20830;-45
2023/03/12 13:13:48;;;;;;;13.88;1.80;;;;;;;;;;4970153;28;20042;-45
2023/03/12 13:16:17;;;;;;;14.30;2.22;;;;;;;;;;4958231;28;20491;-45
2023/03/12 13:19:04;;;;;;;14.18;2.45;;;;;;;;;;4960002;28;20045;-45
2023/03/12 13:21:37;;;;;;;17.30;1.90;;;;;;;;;;4979684;28;20538;-45
2023/03/12 13:24:12;;;;;;;10.48;1.90;;;;;;;;;;4954190;28;20035;-45
2023/03/12 13:26:49;;;;;;;14.35;2.22;;;;;;;;;;4970794;28;20042;-45
2023/03/12 13:29:22;;;;;;;15.73;2.30;;;;;;;;;;4960779;28;20050;-46
2023/03/12 13:31:50;;;;;;;15.05;2.08;;;;;;;;;;4942196;28;20045;-45
2023/03/12 13:34:44;;;;;;;16.07;1.77;;;;;;;;;;4972566;28;20116;-45
2023/03/12 13:37:20;;;;;;;9.15;1.85;;;;;;;;;;4956498;28;20109;-46
2023/03/12 13:39:50;;;;;;;13.75;1.33;;;;;;;;;;4956195;28;20423;-46
2023/03/12 13:42:36;;;;;;;11.52;1.73;;;;;;;;;;4958846;28;20591;-45
2023/03/12 13:45:25;;;;;;;13.90;1.90;;;;;;;;;;4953483;28;20126;-44
2023/03/12 13:47:57;;;;;;;13.53;1.87;;;;;;;;;;4958623;28;20045;-44
2023/03/12 13:50:25;;;;;;;11.65;1.70;;;;;;;;;;4980791;28;20472;-44
2023/03/12 13:53:00;;;;;;;10.70;1.77;;;;;;;;;;4953944;28;20480;-44
2023/03/12 13:55:29;;;;;;;7.70;1.42;;;;;;;;;;4969042;28;20046;-44
2023/03/12 13:57:59;;;;;;;13.00;1.45;;;;;;;;;;4970189;28;20048;-45
2023/03/12 14:00:30;;;;;;;10.00;1.13;;;;;;;;;;4955202;28;20041;-45
2023/03/12 14:02:59;;;;;;;10.95;1.63;;;;;;;;;;4620454;28;10000148;-46
2023/03/12 14:05:27;;;;;;;10.65;1.30;;;;;;;;;;4977443;28;20141;-44
2023/03/12 14:08:10;;;;;;;8.23;1.10;;;;;;;;;;4961770;28;20125;-44
2023/03/12 14:10:43;;;;;;;8.30;0.98;;;;;;;;;;4962813;28;20073;-44
2023/03/12 14:13:17;;;;;;;10.05;1.17;;;;;;;;;;4945961;28;20121;-44
2023/03/12 14:15:50;;;;;;;10.60;1.50;;;;;;;;;;4959556;28;20680;-45
2023/03/12 14:18:20;;;;;;;11.95;1.30;;;;;;;;;;4980265;28;20029;-45
2023/03/12 14:20:52;;;;;;;13.37;1.43;;;;;;;;;;4597079;28;10000238;-46
2023/03/12 14:23:20;;;;;;;12.27;1.65;;;;;;;;;;4978979;28;20050;-50
2023/03/12 14:25:48;;;;;;;10.73;1.40;;;;;;;;;;4962148;28;21386;-48
2023/03/12 14:28:18;;;;;;;9.87;1.27;;;;;;;;;;4967739;28;20138;-46
2023/03/12 14:30:51;;;;;;;11.90;1.92;;;;;;;;;;4981407;28;20034;-50
2023/03/12 14:33:20;;;;;;;12.38;1.30;;;;;;;;;;4965954;28;20045;-47
2023/03/12 14:35:53;;;;;;;10.17;1.43;;;;;;;;;;4625641;28;10000591;-48
2023/03/12 14:38:25;;;;;;;10.13;1.30;;;;;;;;;;4967425;28;20042;-47
2023/03/12 14:40:55;;;;;;;14.30;1.42;;;;;;;;;;4957874;28;20166;-45
2023/03/12 14:43:24;;;;;;;9.98;1.20;;;;;;;;;;4965160;28;20991;-47
2023/03/12 14:45:56;;;;;;;5.83;1.17;;;;;;;;;;4980705;28;20129;-46